Main page
METAR-TAF:

METAR-TAF

Airports :

Paganella, Italy

latitude: 46-09N, longitude: 011-02E, elevation: 2125 m

Current weather observation

The report was made 53 minutes ago, at 19:55 UTC
Wind 7 kt from the East/Northeast
Temperature 10°C
Humidity 46%
Pressure 1024 hPa
Visibility 10 km or more
no clouds below 1500 m and no cumulonimbus

METAR: LIVP 231955Z 06007KT CAVOK 10/M01 Q1024 RMK SCT SCT170 MON LIB VAL NIL VIS MIN 9999

Time: 22:48 (20:48 UTC)


TAF: missing

Weather observations and forecasts of more than 4000 airports (METAR and TAF reports).

The available stations are represented by yellow and red dots on the map.

Hover mouse over dot to see the name of the station.

Then click to see weather observations and forecasts.

To change the map : click on the green buttons with a black cross to zoom in, on the green button with a dash to zoom out, or on the green arrows for adjacent maps.


METAR-TAF: